Aviation Digital Data Service (ADDS)

Output produced by METARs form (1551 UTC 30 September 2014)
found at http://aviationweather.gov/adds/metars/
 
KPVD 301528Z 3015/0112 03010KT P6SM OVC015 
     FM301800 05008KT P6SM BKN025 
     FM010200 02008KT P6SM BKN008 
     FM010600 01009KT P6SM BKN003